createdAt,value
2022-12-31T00:00:56.291Z,93.44
2022-12-31T00:01:56.356Z,93.24
2022-12-31T00:02:56.409Z,92.93
2022-12-31T00:03:56.300Z,92.83
2022-12-31T00:04:56.240Z,92.63
2022-12-31T00:05:56.265Z,92.63
2022-12-31T00:06:56.216Z,92.72
2022-12-31T00:07:56.244Z,92.63
2022-12-31T00:08:56.222Z,92.52
2022-12-31T00:09:56.210Z,92.63
2022-12-31T00:10:56.197Z,92.27
2022-12-31T00:11:56.185Z,92.32
2022-12-31T00:12:56.169Z,92.42
2022-12-31T00:13:56.169Z,92.52
2022-12-31T00:14:56.148Z,92.18
2022-12-31T00:15:56.176Z,92.22
2022-12-31T00:16:56.164Z,92.11
2022-12-31T00:17:56.121Z,92.11
2022-12-31T00:18:56.110Z,91.87
2022-12-31T00:19:56.164Z,91.87
2022-12-31T00:20:56.085Z,91.66
2022-12-31T00:21:56.087Z,91.16
2022-12-31T00:22:56.048Z,91.26
2022-12-31T00:23:56.075Z,91.36
2022-12-31T00:24:56.029Z,91.16
2022-12-31T00:25:56.068Z,90.85
2022-12-31T00:26:56.005Z,90.75
2022-12-31T00:27:56.054Z,90.85
2022-12-31T00:28:56.234Z,91.05
2022-12-31T00:29:59.523Z,91.16
2022-12-31T00:30:56.030Z,91.30
2022-12-31T00:31:55.983Z,91.05
2022-12-31T00:32:56.100Z,90.34
2022-12-31T00:33:55.974Z,90.24
2022-12-31T00:34:55.932Z,90.14
2022-12-31T00:35:55.936Z,89.99
2022-12-31T00:36:55.915Z,89.89
2022-12-31T00:37:55.915Z,89.79
2022-12-31T00:38:55.911Z,89.79
2022-12-31T00:39:55.913Z,89.79
2022-12-31T00:40:55.859Z,90.24
2022-12-31T00:41:55.889Z,90.55
2022-12-31T00:42:55.884Z,90.24
2022-12-31T00:43:55.866Z,90.24
2022-12-31T00:44:55.818Z,90.44
2022-12-31T00:45:55.886Z,90.24
2022-12-31T00:46:55.798Z,89.89
2022-12-31T00:47:55.839Z,89.89
2022-12-31T00:48:55.778Z,89.79
2022-12-31T00:49:55.794Z,90.09
2022-12-31T00:50:55.751Z,90.30
2022-12-31T00:51:55.764Z,90.20
2022-12-31T00:52:55.749Z,89.99
2022-12-31T00:53:55.742Z,90.30
2022-12-31T00:54:55.728Z,89.99
2022-12-31T00:55:55.727Z,89.79
2022-12-31T00:56:55.727Z,89.64
2022-12-31T00:57:55.695Z,90.05
2022-12-31T00:58:55.726Z,90.60
2022-12-31T00:59:55.692Z,91.01
2022-12-31T01:00:55.690Z,91.31
2022-12-31T01:01:55.762Z,91.52
2022-12-31T01:02:55.717Z,92.23
2022-12-31T01:03:55.661Z,92.99
2022-12-31T01:04:55.680Z,93.70
2022-12-31T01:05:55.615Z,94.21
2022-12-31T01:06:55.591Z,94.26
2022-12-31T01:07:55.627Z,93.40
2022-12-31T01:08:55.615Z,93.60
2022-12-31T01:09:55.579Z,93.70
2022-12-31T01:10:55.558Z,95.17
2022-12-31T01:11:55.568Z,96.09
2022-12-31T01:12:55.513Z,97.25
2022-12-31T01:13:55.556Z,98.18
2022-12-31T01:14:55.513Z,98.93
2022-12-31T01:15:55.569Z,99.65
2022-12-31T01:16:55.496Z,99.99
2022-12-31T01:17:55.473Z,99.99
2022-12-31T01:18:55.486Z,99.99
2022-12-31T01:19:55.450Z,99.99
2022-12-31T01:20:55.472Z,99.99
2022-12-31T01:21:55.434Z,99.99
2022-12-31T01:22:55.429Z,99.99
2022-12-31T01:23:55.401Z,99.99
2022-12-31T01:24:55.495Z,99.99
2022-12-31T01:25:55.400Z,99.99
2022-12-31T01:26:55.558Z,99.99
2022-12-31T01:27:55.368Z,99.99
2022-12-31T01:28:55.390Z,99.99
2022-12-31T01:29:55.331Z,99.99
2022-12-31T01:30:56.991Z,99.99
2022-12-31T01:31:55.378Z,99.99
2022-12-31T01:32:55.329Z,99.99
2022-12-31T01:33:55.297Z,99.99
2022-12-31T01:34:55.327Z,99.99
2022-12-31T01:35:55.278Z,99.99
2022-12-31T01:36:55.300Z,99.99
2022-12-31T01:37:55.245Z,99.99
2022-12-31T01:38:55.292Z,99.99
2022-12-31T01:39:55.219Z,99.99
2022-12-31T01:40:55.242Z,99.99
2022-12-31T01:41:55.208Z,99.99
2022-12-31T01:42:55.238Z,99.99
2022-12-31T01:43:55.211Z,99.99
2022-12-31T01:44:55.224Z,99.99
2022-12-31T01:45:55.182Z,99.99
2022-12-31T01:46:55.167Z,99.99
2022-12-31T01:47:55.172Z,99.99
2022-12-31T01:48:55.150Z,99.99
2022-12-31T01:49:55.124Z,99.99
2022-12-31T01:50:55.131Z,99.99
2022-12-31T01:51:55.114Z,99.99
2022-12-31T01:52:55.108Z,99.99
2022-12-31T01:53:55.085Z,99.99
2022-12-31T01:54:55.107Z,99.99
2022-12-31T01:55:55.058Z,99.99
2022-12-31T01:56:55.076Z,99.99
2022-12-31T01:57:55.042Z,99.99
2022-12-31T01:58:55.063Z,99.99
2022-12-31T01:59:55.015Z,99.99
2022-12-31T02:00:55.083Z,99.99
2022-12-31T02:01:55.150Z,99.99
2022-12-31T02:02:55.126Z,99.99
2022-12-31T02:03:54.982Z,99.99
2022-12-31T02:04:54.999Z,99.99
2022-12-31T02:05:54.956Z,99.99
2022-12-31T02:06:55.218Z,99.95
2022-12-31T02:07:54.931Z,99.75
2022-12-31T02:08:54.953Z,99.29
2022-12-31T02:09:54.981Z,98.58
2022-12-31T02:10:54.916Z,98.54
2022-12-31T02:11:54.898Z,97.92
2022-12-31T02:12:54.901Z,97.62
2022-12-31T02:13:58.367Z,97.16
2022-12-31T02:14:54.878Z,96.55
2022-12-31T02:15:54.887Z,96.45
2022-12-31T02:16:54.859Z,96.55
2022-12-31T02:17:54.830Z,96.76
2022-12-31T02:18:54.866Z,96.10
2022-12-31T02:19:54.801Z,96.25
2022-12-31T02:20:54.837Z,95.90
2022-12-31T02:21:54.783Z,95.79
2022-12-31T02:22:54.795Z,95.29
2022-12-31T02:23:54.758Z,95.24
2022-12-31T02:24:54.782Z,95.39
2022-12-31T02:25:54.738Z,95.59
2022-12-31T02:26:54.762Z,95.79
2022-12-31T02:27:54.734Z,95.90
2022-12-31T02:28:54.747Z,95.54
2022-12-31T02:29:54.696Z,95.79
2022-12-31T02:30:54.740Z,96.10
2022-12-31T02:31:54.713Z,96.20
2022-12-31T02:32:54.684Z,96.61
2022-12-31T02:33:54.653Z,96.61
2022-12-31T02:34:54.675Z,97.22
2022-12-31T02:35:54.647Z,97.02
2022-12-31T02:36:54.660Z,96.81
2022-12-31T02:37:54.632Z,96.92
2022-12-31T02:38:54.628Z,96.51
2022-12-31T02:39:54.589Z,96.30
2022-12-31T02:40:54.600Z,96.06
2022-12-31T02:41:54.570Z,95.54
2022-12-31T02:42:55.712Z,95.34
2022-12-31T02:43:54.559Z,95.14
2022-12-31T02:44:54.555Z,94.18
2022-12-31T02:45:54.531Z,94.08
2022-12-31T02:46:54.577Z,94.38
2022-12-31T02:47:54.506Z,94.18
2022-12-31T02:48:54.533Z,93.67
2022-12-31T02:49:54.498Z,93.57
2022-12-31T02:50:54.496Z,93.47
2022-12-31T02:51:54.463Z,93.67
2022-12-31T02:52:54.486Z,93.87
2022-12-31T02:53:54.445Z,93.37
2022-12-31T02:54:54.459Z,93.37
2022-12-31T02:55:54.463Z,93.47
2022-12-31T02:56:54.430Z,93.22
2022-12-31T02:57:54.408Z,93.26
2022-12-31T02:58:54.408Z,93.26
2022-12-31T02:59:54.380Z,92.91
2022-12-31T03:00:54.429Z,92.41
2022-12-31T03:01:54.503Z,92.82
2022-12-31T03:02:54.422Z,92.41
2022-12-31T03:03:54.333Z,91.65
2022-12-31T03:04:54.348Z,91.80
2022-12-31T03:05:54.317Z,91.45
2022-12-31T03:06:54.337Z,91.05
2022-12-31T03:07:54.300Z,90.94
2022-12-31T03:08:54.307Z,90.74
2022-12-31T03:09:54.279Z,91.05
2022-12-31T03:10:54.353Z,91.55
2022-12-31T03:11:54.246Z,91.90
2022-12-31T03:12:54.277Z,90.19
2022-12-31T03:13:54.233Z,90.39
2022-12-31T03:14:54.241Z,90.49
2022-12-31T03:15:54.362Z,89.98
2022-12-31T03:16:54.214Z,90.74
2022-12-31T03:17:54.205Z,91.35
2022-12-31T03:18:54.212Z,91.75
2022-12-31T03:19:54.181Z,92.00
2022-12-31T03:20:54.189Z,92.10
2022-12-31T03:21:54.208Z,92.41
2022-12-31T03:22:54.177Z,91.90
2022-12-31T03:23:54.139Z,91.45
2022-12-31T03:24:54.129Z,91.35
2022-12-31T03:25:54.134Z,90.70
2022-12-31T03:26:54.116Z,91.14
2022-12-31T03:27:54.096Z,91.65
2022-12-31T03:28:54.112Z,91.96
2022-12-31T03:29:54.057Z,92.36
2022-12-31T03:30:54.091Z,93.12
2022-12-31T03:31:54.088Z,93.02
2022-12-31T03:32:54.077Z,92.91
2022-12-31T03:33:54.014Z,92.87
2022-12-31T03:34:54.053Z,93.43
2022-12-31T03:35:53.996Z,93.38
2022-12-31T03:36:54.007Z,93.73
2022-12-31T03:37:53.988Z,93.73
2022-12-31T03:38:53.977Z,94.04
2022-12-31T03:39:53.977Z,93.48
2022-12-31T03:40:53.968Z,93.18
2022-12-31T03:41:53.927Z,93.68
2022-12-31T03:42:53.945Z,93.73
2022-12-31T03:43:53.910Z,94.44
2022-12-31T03:44:53.928Z,94.54
2022-12-31T03:45:54.009Z,95.05
2022-12-31T03:46:53.900Z,95.15
2022-12-31T03:47:53.871Z,95.15
2022-12-31T03:48:53.876Z,94.74
2022-12-31T03:49:53.870Z,95.46
2022-12-31T03:50:53.884Z,96.01
2022-12-31T03:51:53.834Z,96.52
2022-12-31T03:52:53.845Z,96.01
2022-12-31T03:53:53.806Z,96.31
2022-12-31T03:54:53.818Z,96.07
2022-12-31T03:55:53.784Z,96.11
2022-12-31T03:56:59.817Z,95.86
2022-12-31T03:57:53.781Z,96.62
2022-12-31T03:58:53.773Z,97.13
2022-12-31T03:59:53.777Z,97.13
2022-12-31T04:00:53.811Z,98.09
2022-12-31T04:01:53.963Z,97.99
2022-12-31T04:02:53.793Z,96.83
2022-12-31T04:03:53.693Z,96.52
2022-12-31T04:04:53.713Z,95.86
2022-12-31T04:05:53.686Z,96.27
2022-12-31T04:06:53.679Z,96.22
2022-12-31T04:07:53.676Z,95.46
2022-12-31T04:08:53.661Z,95.36
2022-12-31T04:09:53.628Z,95.15
2022-12-31T04:10:53.658Z,95.36
2022-12-31T04:11:53.610Z,94.44
2022-12-31T04:12:53.646Z,94.74
2022-12-31T04:13:53.591Z,94.85
2022-12-31T04:14:53.601Z,95.56
2022-12-31T04:15:53.568Z,95.36
2022-12-31T04:16:53.581Z,95.56
2022-12-31T04:17:53.579Z,95.56
2022-12-31T04:18:53.606Z,95.46
2022-12-31T04:19:53.545Z,94.24
2022-12-31T04:20:53.534Z,94.34
2022-12-31T04:21:53.504Z,94.44
2022-12-31T04:22:53.523Z,94.44
2022-12-31T04:23:53.501Z,94.04
2022-12-31T04:24:53.500Z,94.13
2022-12-31T04:25:53.474Z,94.64
2022-12-31T04:26:53.475Z,94.95
2022-12-31T04:27:53.447Z,94.64
2022-12-31T04:28:53.464Z,94.74
2022-12-31T04:29:53.413Z,94.74
2022-12-31T04:30:53.427Z,95.15
2022-12-31T04:31:53.425Z,95.05
2022-12-31T04:32:53.418Z,95.25
2022-12-31T04:33:53.374Z,95.46
2022-12-31T04:34:53.397Z,95.56
2022-12-31T04:35:53.371Z,95.66
2022-12-31T04:36:53.369Z,94.74
2022-12-31T04:37:53.333Z,94.64
2022-12-31T04:38:53.346Z,94.54
2022-12-31T04:39:53.329Z,94.74
2022-12-31T04:40:53.355Z,94.85
2022-12-31T04:41:53.292Z,94.85
2022-12-31T04:42:53.302Z,94.44
2022-12-31T04:43:53.286Z,94.44
2022-12-31T04:44:53.284Z,94.24
2022-12-31T04:45:53.303Z,94.13
2022-12-31T04:46:53.261Z,94.44
2022-12-31T04:47:53.224Z,94.64
2022-12-31T04:48:53.248Z,94.44
2022-12-31T04:49:53.207Z,93.79
2022-12-31T04:50:53.241Z,93.48
2022-12-31T04:51:53.213Z,93.18
2022-12-31T04:52:53.196Z,93.07
2022-12-31T04:53:53.161Z,93.28
2022-12-31T04:54:53.201Z,92.77
2022-12-31T04:55:53.167Z,92.77
2022-12-31T04:56:53.171Z,92.87
2022-12-31T04:57:53.121Z,92.77
2022-12-31T04:58:53.151Z,93.07
2022-12-31T04:59:53.106Z,92.57
2022-12-31T05:00:53.169Z,93.07
2022-12-31T05:01:53.212Z,93.38
2022-12-31T05:02:53.120Z,93.99
2022-12-31T05:03:53.051Z,94.70
2022-12-31T05:04:53.074Z,95.46
2022-12-31T05:05:53.029Z,96.17
2022-12-31T05:06:53.047Z,97.08
2022-12-31T05:07:53.032Z,97.33
2022-12-31T05:08:53.026Z,97.64
2022-12-31T05:09:52.992Z,98.14
2022-12-31T05:10:53.003Z,98.25
2022-12-31T05:11:52.976Z,98.14
2022-12-31T05:12:53.078Z,97.74
2022-12-31T05:13:52.950Z,97.94
2022-12-31T05:14:52.970Z,98.25
2022-12-31T05:15:52.926Z,98.45
2022-12-31T05:16:52.998Z,98.45
2022-12-31T05:17:52.900Z,98.50
2022-12-31T05:18:52.929Z,97.94
2022-12-31T05:19:52.901Z,97.94
2022-12-31T05:20:52.891Z,97.94
2022-12-31T05:21:52.884Z,98.05
2022-12-31T05:22:52.878Z,98.05
2022-12-31T05:23:52.875Z,97.23
2022-12-31T05:24:52.854Z,96.78
2022-12-31T05:25:52.834Z,96.83
2022-12-31T05:26:52.826Z,96.52
2022-12-31T05:27:52.796Z,96.62
2022-12-31T05:28:52.814Z,95.66
2022-12-31T05:29:52.805Z,95.15
2022-12-31T05:30:52.833Z,94.74
2022-12-31T05:31:52.777Z,94.20
2022-12-31T05:32:52.748Z,94.09
2022-12-31T05:33:52.754Z,93.89
2022-12-31T05:34:52.755Z,93.28
2022-12-31T05:35:52.735Z,93.18
2022-12-31T05:36:52.696Z,92.67
2022-12-31T05:37:52.708Z,92.77
2022-12-31T05:38:52.702Z,92.22
2022-12-31T05:39:52.694Z,92.32
2022-12-31T05:40:52.668Z,90.86
2022-12-31T05:41:52.713Z,90.45
2022-12-31T05:42:52.631Z,90.35
2022-12-31T05:43:52.648Z,90.25
2022-12-31T05:44:52.610Z,89.64
2022-12-31T05:45:52.690Z,89.33
2022-12-31T05:46:52.601Z,89.54
2022-12-31T05:47:52.601Z,89.64
2022-12-31T05:48:52.579Z,89.54
2022-12-31T05:49:52.603Z,89.33
2022-12-31T05:50:52.548Z,89.13
2022-12-31T05:51:52.585Z,89.13
2022-12-31T05:52:52.526Z,89.33
2022-12-31T05:53:52.542Z,89.74
2022-12-31T05:54:52.517Z,88.73
2022-12-31T05:55:52.538Z,89.03
2022-12-31T05:56:52.510Z,88.07
2022-12-31T05:57:52.503Z,87.97
2022-12-31T05:58:52.476Z,87.87
2022-12-31T05:59:52.487Z,87.46
2022-12-31T06:00:52.440Z,87.67
2022-12-31T06:01:52.465Z,88.28
2022-12-31T06:02:52.480Z,87.77
2022-12-31T06:03:52.476Z,86.51
2022-12-31T06:04:52.398Z,86.31
2022-12-31T06:05:52.415Z,86.51
2022-12-31T06:06:52.389Z,86.41
2022-12-31T06:07:52.402Z,86.21
2022-12-31T06:08:52.358Z,86.21
2022-12-31T06:09:52.373Z,86.31
2022-12-31T06:10:52.344Z,86.71
2022-12-31T06:11:52.347Z,86.00
2022-12-31T06:12:52.315Z,85.90
2022-12-31T06:13:52.349Z,85.70
2022-12-31T06:14:52.294Z,85.60
2022-12-31T06:15:52.337Z,84.85
2022-12-31T06:16:52.269Z,84.64
2022-12-31T06:17:52.292Z,84.34
2022-12-31T06:18:52.281Z,85.05
2022-12-31T06:19:52.252Z,84.64
2022-12-31T06:20:52.244Z,84.24
2022-12-31T06:21:52.242Z,84.24
2022-12-31T06:22:52.211Z,84.44
2022-12-31T06:23:52.212Z,84.44
2022-12-31T06:24:52.202Z,83.39
2022-12-31T06:25:52.207Z,83.69
2022-12-31T06:26:52.160Z,84.30
2022-12-31T06:27:52.171Z,83.59
2022-12-31T06:28:52.168Z,83.59
2022-12-31T06:29:52.167Z,83.39
2022-12-31T06:30:52.180Z,83.90
2022-12-31T06:31:52.153Z,84.24
2022-12-31T06:32:52.117Z,83.39
2022-12-31T06:33:52.109Z,82.24
2022-12-31T06:34:52.108Z,82.54
2022-12-31T06:35:52.090Z,82.54
2022-12-31T06:36:52.058Z,82.44
2022-12-31T06:37:52.095Z,82.03
2022-12-31T06:38:52.026Z,82.24
2022-12-31T06:39:52.216Z,82.44
2022-12-31T06:40:52.028Z,82.34
2022-12-31T06:41:52.042Z,82.44
2022-12-31T06:42:57.810Z,81.93
2022-12-31T06:43:52.009Z,81.73
2022-12-31T06:44:52.055Z,81.73
2022-12-31T06:45:51.995Z,81.32
2022-12-31T06:46:52.085Z,82.03
2022-12-31T06:47:51.954Z,82.14
2022-12-31T06:48:51.943Z,82.03
2022-12-31T06:49:51.942Z,82.14
2022-12-31T06:50:51.902Z,82.44
2022-12-31T06:51:52.076Z,81.52
2022-12-31T06:52:51.900Z,81.73
2022-12-31T06:53:51.887Z,81.73
2022-12-31T06:54:51.864Z,80.78
2022-12-31T06:55:51.867Z,81.29
2022-12-31T06:56:51.872Z,81.09
2022-12-31T06:57:51.849Z,80.27
2022-12-31T06:58:51.815Z,81.29
2022-12-31T06:59:58.330Z,80.68
2022-12-31T07:00:51.795Z,80.88
2022-12-31T07:01:51.916Z,81.49
2022-12-31T07:02:51.884Z,81.52
2022-12-31T07:03:51.791Z,80.98
2022-12-31T07:04:51.751Z,79.67
2022-12-31T07:05:58.308Z,80.27
2022-12-31T07:06:58.264Z,80.98
2022-12-31T07:07:59.537Z,81.52
2022-12-31T07:08:51.707Z,80.47
2022-12-31T07:09:51.730Z,80.38
2022-12-31T07:10:51.685Z,80.78
2022-12-31T07:11:51.711Z,79.87
2022-12-31T07:12:51.669Z,79.83
2022-12-31T07:13:51.693Z,79.02
2022-12-31T07:14:51.646Z,79.13
2022-12-31T07:15:51.704Z,79.13
2022-12-31T07:16:51.625Z,78.92
2022-12-31T07:17:51.649Z,79.73
2022-12-31T07:18:51.631Z,79.43
2022-12-31T07:19:57.307Z,79.77
2022-12-31T07:20:51.597Z,79.77
2022-12-31T07:21:51.599Z,79.63
2022-12-31T07:22:51.569Z,79.53
2022-12-31T07:23:51.567Z,80.27
2022-12-31T07:24:51.577Z,79.53
2022-12-31T07:25:51.543Z,79.13
2022-12-31T07:26:56.547Z,79.43
2022-12-31T07:27:51.529Z,79.22
2022-12-31T07:28:51.482Z,79.13
2022-12-31T07:29:51.535Z,79.13
2022-12-31T07:30:51.494Z,79.22
2022-12-31T07:31:51.492Z,79.43
2022-12-31T07:32:51.453Z,79.13
2022-12-31T07:33:51.473Z,78.72
2022-12-31T07:34:51.443Z,78.72
2022-12-31T07:35:51.523Z,78.82
2022-12-31T07:36:51.419Z,79.53
2022-12-31T07:37:51.427Z,78.82
2022-12-31T07:38:51.394Z,79.13
2022-12-31T07:39:51.393Z,78.62
2022-12-31T07:40:51.394Z,79.02
2022-12-31T07:41:51.368Z,79.02
2022-12-31T07:42:51.365Z,77.87
2022-12-31T07:43:51.353Z,77.06
2022-12-31T07:44:51.319Z,77.67
2022-12-31T07:45:51.331Z,78.17
2022-12-31T07:46:51.351Z,78.17
2022-12-31T07:47:51.307Z,78.31
2022-12-31T07:48:51.279Z,78.11
2022-12-31T07:49:51.288Z,78.42
2022-12-31T07:50:51.252Z,78.82
2022-12-31T07:51:51.278Z,78.92
2022-12-31T07:52:51.226Z,78.01
2022-12-31T07:53:51.256Z,77.57
2022-12-31T07:54:51.224Z,77.87
2022-12-31T07:55:51.228Z,77.37
2022-12-31T07:56:51.219Z,77.71
2022-12-31T07:57:51.281Z,77.71
2022-12-31T07:58:51.189Z,77.37
2022-12-31T07:59:51.182Z,77.57
2022-12-31T08:00:51.243Z,77.37
2022-12-31T08:01:57.805Z,77.47
2022-12-31T08:02:51.178Z,77.26
2022-12-31T08:03:51.293Z,77.47
2022-12-31T08:06:01.471Z,77.47
2022-12-31T08:07:09.023Z,77.87
2022-12-31T08:08:08.499Z,77.91
2022-12-31T08:09:09.995Z,78.01
2022-12-31T08:10:02.456Z,78.31
2022-12-31T08:11:02.438Z,77.91
2022-12-31T08:12:02.407Z,77.91
2022-12-31T08:13:02.421Z,77.91
2022-12-31T08:14:02.397Z,78.42
2022-12-31T08:15:02.402Z,77.91
2022-12-31T08:16:02.478Z,77.91
2022-12-31T08:17:02.389Z,77.81
2022-12-31T08:18:02.347Z,78.52
2022-12-31T08:19:02.352Z,78.62
2022-12-31T08:20:02.359Z,78.82
2022-12-31T08:21:02.328Z,78.31
2022-12-31T08:22:02.288Z,77.57
2022-12-31T08:23:02.305Z,77.67
2022-12-31T08:24:02.283Z,77.17
2022-12-31T08:25:02.287Z,77.67
2022-12-31T08:26:02.280Z,77.37
2022-12-31T08:27:02.261Z,77.91
2022-12-31T08:28:02.223Z,77.57
2022-12-31T08:29:02.252Z,77.57
2022-12-31T08:30:02.215Z,77.37
2022-12-31T08:31:02.258Z,77.57
2022-12-31T08:32:02.215Z,77.06
2022-12-31T08:33:02.211Z,76.97
2022-12-31T08:34:06.066Z,77.57
2022-12-31T08:35:02.178Z,77.26
2022-12-31T08:36:02.152Z,77.06
2022-12-31T08:37:02.181Z,76.86
2022-12-31T08:38:02.147Z,77.06
2022-12-31T08:39:02.156Z,76.62
2022-12-31T08:40:02.117Z,76.42
2022-12-31T08:41:02.126Z,76.97
2022-12-31T08:42:02.131Z,76.86
2022-12-31T08:43:02.097Z,77.26
2022-12-31T08:44:02.059Z,77.17
2022-12-31T08:45:02.070Z,77.26
2022-12-31T08:46:02.087Z,77.57
2022-12-31T08:47:02.081Z,77.97
2022-12-31T08:48:02.030Z,77.77
2022-12-31T08:49:02.030Z,77.17
2022-12-31T08:50:02.004Z,76.76
2022-12-31T08:51:02.030Z,76.76
2022-12-31T08:52:02.058Z,76.46
2022-12-31T08:53:02.022Z,76.26
2022-12-31T08:54:01.950Z,75.92
2022-12-31T08:55:01.968Z,75.51
2022-12-31T08:56:01.934Z,75.31
2022-12-31T08:57:01.957Z,75.31
2022-12-31T08:58:01.926Z,75.51
2022-12-31T08:59:01.942Z,76.02
2022-12-31T09:00:01.908Z,75.71
2022-12-31T09:01:02.025Z,75.71
2022-12-31T09:02:01.989Z,75.71
2022-12-31T09:03:01.882Z,75.71
2022-12-31T09:04:01.883Z,76.02
2022-12-31T09:05:01.896Z,75.61
2022-12-31T09:06:01.823Z,75.41
2022-12-31T09:07:01.846Z,75.21
2022-12-31T09:08:01.815Z,75.71
2022-12-31T09:09:01.840Z,76.22
2022-12-31T09:10:01.805Z,76.12
2022-12-31T09:11:01.831Z,75.71
2022-12-31T09:12:01.770Z,75.92
2022-12-31T09:13:01.773Z,76.12
2022-12-31T09:14:01.740Z,75.51
2022-12-31T09:15:03.333Z,75.81
2022-12-31T09:16:01.726Z,75.71
2022-12-31T09:17:01.735Z,75.31
2022-12-31T09:18:01.711Z,75.71
2022-12-31T09:19:01.722Z,75.61
2022-12-31T09:20:01.688Z,75.51
2022-12-31T09:21:01.714Z,75.41
2022-12-31T09:22:01.656Z,76.12
2022-12-31T09:23:01.680Z,76.32
2022-12-31T09:24:07.450Z,75.71
2022-12-31T09:25:01.665Z,76.12
2022-12-31T09:26:01.661Z,75.81
2022-12-31T09:27:01.656Z,75.71
2022-12-31T09:28:01.634Z,75.92
2022-12-31T09:29:01.629Z,75.41
2022-12-31T09:30:01.729Z,75.51
2022-12-31T09:31:01.595Z,75.71
2022-12-31T09:32:01.644Z,75.41
2022-12-31T09:33:01.794Z,75.51
2022-12-31T09:34:01.533Z,75.61
2022-12-31T09:35:01.542Z,75.51
2022-12-31T09:36:01.520Z,75.21
2022-12-31T09:37:01.523Z,75.10
2022-12-31T09:38:04.174Z,75.21
2022-12-31T09:39:01.516Z,75.31
2022-12-31T09:40:01.501Z,74.46
2022-12-31T09:41:01.494Z,74.50
2022-12-31T09:42:01.449Z,73.96
2022-12-31T09:43:01.458Z,73.96
2022-12-31T09:44:01.709Z,73.55
2022-12-31T09:45:01.467Z,73.75
2022-12-31T09:46:01.463Z,73.46
2022-12-31T09:47:01.429Z,73.35
2022-12-31T09:48:01.410Z,73.35
2022-12-31T09:49:01.589Z,73.15
2022-12-31T09:50:01.409Z,73.55
2022-12-31T09:51:01.379Z,73.15
2022-12-31T09:52:01.358Z,72.85
2022-12-31T09:53:01.370Z,73.35
2022-12-31T09:54:01.349Z,72.95
2022-12-31T09:55:01.308Z,72.81
2022-12-31T09:56:01.368Z,73.86
2022-12-31T09:57:01.628Z,73.96
2022-12-31T09:58:01.424Z,74.66
2022-12-31T09:59:01.281Z,76.59
2022-12-31T10:00:01.276Z,77.84
2022-12-31T10:01:01.366Z,78.48
2022-12-31T10:02:01.565Z,78.08
2022-12-31T10:03:01.251Z,77.47
2022-12-31T10:04:01.245Z,77.26
2022-12-31T10:05:01.207Z,77.17
2022-12-31T10:06:01.224Z,75.21
2022-12-31T10:07:01.254Z,74.80
2022-12-31T10:08:01.221Z,74.16
2022-12-31T10:09:01.175Z,74.16
2022-12-31T10:10:01.197Z,74.77
2022-12-31T10:11:01.142Z,74.06
2022-12-31T10:12:01.156Z,73.66
2022-12-31T10:13:01.168Z,74.16
2022-12-31T10:14:01.146Z,73.66
2022-12-31T10:15:01.101Z,74.46
2022-12-31T10:16:01.124Z,73.86
2022-12-31T10:17:01.105Z,73.55
2022-12-31T10:18:01.126Z,73.25
2022-12-31T10:19:01.061Z,72.81
2022-12-31T10:20:01.064Z,72.71
2022-12-31T10:21:01.051Z,72.51
2022-12-31T10:22:01.052Z,72.51
2022-12-31T10:23:01.108Z,72.91
2022-12-31T10:24:01.079Z,73.25
2022-12-31T10:25:00.992Z,73.02
2022-12-31T10:26:00.997Z,73.02
2022-12-31T10:27:00.963Z,73.02
2022-12-31T10:28:00.977Z,73.66
2022-12-31T10:29:00.969Z,73.75
2022-12-31T10:30:00.959Z,73.25
2022-12-31T10:31:00.978Z,73.11
2022-12-31T10:32:00.967Z,73.02
2022-12-31T10:33:00.900Z,72.71
2022-12-31T10:34:00.918Z,72.00
2022-12-31T10:35:00.922Z,72.61
2022-12-31T10:36:00.893Z,72.41
2022-12-31T10:37:00.856Z,72.51
2022-12-31T10:38:00.874Z,73.11
2022-12-31T10:39:00.846Z,72.41
2022-12-31T10:40:00.888Z,73.02
2022-12-31T10:41:00.833Z,73.15
2022-12-31T10:42:00.829Z,73.15
2022-12-31T10:43:00.799Z,72.81
2022-12-31T10:44:00.815Z,72.41
2022-12-31T10:45:00.776Z,72.31
2022-12-31T10:46:00.881Z,71.80
2022-12-31T10:47:00.767Z,71.67
2022-12-31T10:48:00.780Z,71.97
2022-12-31T10:49:00.733Z,72.00
2022-12-31T10:50:00.747Z,71.70
2022-12-31T10:51:00.709Z,71.57
2022-12-31T10:52:00.726Z,72.38
2022-12-31T10:53:00.707Z,71.67
2022-12-31T10:54:00.720Z,71.87
2022-12-31T10:55:00.713Z,71.80
2022-12-31T10:56:00.676Z,71.91
2022-12-31T10:57:00.660Z,71.57
2022-12-31T10:58:04.241Z,71.26
2022-12-31T10:59:00.636Z,70.96
2022-12-31T11:00:00.668Z,71.77
2022-12-31T11:01:00.791Z,71.06
2022-12-31T11:02:00.729Z,70.73
2022-12-31T11:03:00.715Z,70.96
2022-12-31T11:04:00.695Z,71.26
2022-12-31T11:05:00.572Z,71.26
2022-12-31T11:06:00.595Z,71.57
2022-12-31T11:07:00.546Z,71.26
2022-12-31T11:08:00.569Z,70.73
2022-12-31T11:09:00.522Z,70.93
2022-12-31T11:10:00.608Z,70.73
2022-12-31T11:11:00.521Z,70.93
2022-12-31T11:12:00.520Z,70.42
2022-12-31T11:13:00.630Z,70.73
2022-12-31T11:14:00.505Z,70.32
2022-12-31T11:15:00.484Z,70.42
2022-12-31T11:16:00.520Z,70.22
2022-12-31T11:17:00.484Z,70.32
2022-12-31T11:18:00.467Z,70.42
2022-12-31T11:19:00.440Z,70.73
2022-12-31T11:20:00.433Z,71.33
2022-12-31T11:21:00.413Z,71.13
2022-12-31T11:22:00.454Z,70.42
2022-12-31T11:23:00.390Z,70.73
2022-12-31T11:24:00.573Z,70.53
2022-12-31T11:25:00.369Z,70.42
2022-12-31T11:26:00.421Z,70.32
2022-12-31T11:27:00.340Z,69.92
2022-12-31T11:28:00.744Z,70.39
2022-12-31T11:29:00.323Z,70.29
2022-12-31T11:30:00.347Z,70.59
2022-12-31T11:31:00.350Z,69.79
2022-12-31T11:32:00.332Z,70.59
2022-12-31T11:33:00.269Z,70.79
2022-12-31T11:34:00.286Z,70.12
2022-12-31T11:35:00.264Z,69.68
2022-12-31T11:36:00.937Z,69.35
2022-12-31T11:37:00.269Z,69.05
2022-12-31T11:38:00.254Z,68.65
2022-12-31T11:39:00.259Z,68.85
2022-12-31T11:40:00.223Z,68.65
2022-12-31T11:41:00.185Z,69.45
2022-12-31T11:42:00.207Z,69.15
2022-12-31T11:43:00.182Z,68.71
2022-12-31T11:44:00.172Z,68.31
2022-12-31T11:45:00.172Z,67.91
2022-12-31T11:46:00.260Z,68.08
2022-12-31T11:47:00.140Z,67.88
2022-12-31T11:49:00.103Z,68.21
2022-12-31T11:50:00.186Z,68.01
2022-12-31T11:51:00.128Z,68.41
2022-12-31T11:52:00.110Z,67.80
2022-12-31T11:53:00.131Z,68.21
2022-12-31T11:54:00.139Z,68.61
2022-12-31T11:55:00.057Z,68.61
2022-12-31T11:56:00.048Z,68.95
2022-12-31T11:57:00.029Z,69.65
2022-12-31T11:58:00.028Z,68.74
2022-12-31T11:59:02.554Z,68.85
2022-12-31T12:00:00.040Z,69.48
2022-12-31T12:01:00.063Z,70.09
2022-12-31T12:01:59.992Z,69.89
2022-12-31T12:03:00.121Z,69.59
2022-12-31T12:03:59.980Z,69.68
2022-12-31T12:05:02.653Z,69.68
2022-12-31T12:05:59.973Z,69.38
2022-12-31T12:06:59.908Z,69.89
2022-12-31T12:07:59.939Z,70.19
2022-12-31T12:08:59.887Z,70.53
2022-12-31T12:09:59.923Z,69.79
2022-12-31T12:10:59.892Z,69.99
2022-12-31T12:11:59.899Z,70.42
2022-12-31T12:12:59.845Z,70.22
2022-12-31T12:13:59.937Z,70.22
2022-12-31T12:14:59.854Z,70.12
2022-12-31T12:15:59.901Z,69.89
2022-12-31T12:17:04.873Z,69.99
2022-12-31T12:17:59.852Z,69.89
2022-12-31T12:19:00.367Z,69.68
2022-12-31T12:19:59.812Z,70.73
2022-12-31T12:20:59.779Z,70.22
2022-12-31T12:21:59.803Z,70.02
2022-12-31T12:22:59.758Z,69.72
2022-12-31T12:23:59.761Z,70.12
2022-12-31T12:24:59.738Z,70.12
2022-12-31T12:25:59.736Z,70.42
2022-12-31T12:26:59.705Z,69.92
2022-12-31T12:27:59.746Z,69.62
2022-12-31T12:28:59.675Z,69.62
2022-12-31T12:29:59.695Z,69.92
2022-12-31T12:30:59.735Z,70.53
2022-12-31T12:31:59.700Z,70.12
2022-12-31T12:32:59.686Z,70.02
2022-12-31T12:34:00.322Z,70.02
2022-12-31T12:34:59.674Z,70.22
2022-12-31T12:35:59.629Z,70.76
2022-12-31T12:36:59.620Z,70.15
2022-12-31T12:37:59.630Z,70.46
2022-12-31T12:38:59.601Z,70.46
2022-12-31T12:39:59.585Z,70.02
2022-12-31T12:40:59.565Z,69.95
2022-12-31T12:41:59.574Z,70.06
2022-12-31T12:42:59.532Z,70.06
2022-12-31T12:43:59.920Z,70.56
2022-12-31T12:44:59.524Z,70.46
2022-12-31T12:45:59.534Z,70.66
2022-12-31T12:46:59.548Z,70.86
2022-12-31T12:47:59.534Z,71.87
2022-12-31T12:48:59.479Z,72.58
2022-12-31T12:50:01.415Z,73.79
2022-12-31T12:50:59.454Z,74.84
2022-12-31T12:51:59.492Z,74.93
2022-12-31T12:52:59.899Z,75.04
2022-12-31T12:53:59.445Z,75.13
2022-12-31T12:54:59.449Z,77.19